sensor_id;sensor_type;location;lat;lon;timestamp;pressure;altitude;pressure_sealevel;temperature;humidity
13604;BME280;24578;48.264;11.436;2023-01-26T00:01:22;96548.88;;;-1.32;100.00
13604;BME280;24578;48.264;11.436;2023-01-26T00:04:23;96547.19;;;-1.33;100.00
13604;BME280;24578;48.264;11.436;2023-01-26T00:07:23;96554.59;;;-1.23;100.00
13604;BME280;24578;48.264;11.436;2023-01-26T00:10:24;96540.47;;;-1.36;100.00
13604;BME280;24578;48.264;11.436;2023-01-26T00:13:24;96544.84;;;-1.43;100.00
13604;BME280;24578;48.264;11.436;2023-01-26T00:16:26;96543.13;;;-1.42;100.00
13604;BME280;24578;48.264;11.436;2023-01-26T00:19:27;96527.94;;;-1.45;100.00
13604;BME280;24578;48.264;11.436;2023-01-26T00:22:27;96533.75;;;-1.39;100.00
13604;BME280;24578;48.264;11.436;2023-01-26T00:25:28;96526.16;;;-1.40;100.00
13604;BME280;24578;48.264;11.436;2023-01-26T00:28:28;96517.75;;;-1.42;100.00
13604;BME280;24578;48.264;11.436;2023-01-26T00:31:29;96527.84;;;-1.39;100.00
13604;BME280;24578;48.264;11.436;2023-01-26T00:34:29;96508.97;;;-1.27;100.00
13604;BME280;24578;48.264;11.436;2023-01-26T00:37:30;96530.28;;;-1.33;100.00
13604;BME280;24578;48.264;11.436;2023-01-26T00:40:31;96520.97;;;-1.34;100.00
13604;BME280;24578;48.264;11.436;2023-01-26T00:43:32;96524.44;;;-1.40;100.00
13604;BME280;24578;48.264;11.436;2023-01-26T00:46:33;96522.72;;;-1.38;100.00
13604;BME280;24578;48.264;11.436;2023-01-26T00:49:34;96517.69;;;-1.39;100.00
13604;BME280;24578;48.264;11.436;2023-01-26T00:52:34;96512.72;;;-1.45;100.00
13604;BME280;24578;48.264;11.436;2023-01-26T00:55:35;96513.53;;;-1.43;100.00
13604;BME280;24578;48.264;11.436;2023-01-26T00:58:36;96512.81;;;-1.48;100.00
13604;BME280;24578;48.264;11.436;2023-01-26T01:01:36;96505.19;;;-1.48;100.00
13604;BME280;24578;48.264;11.436;2023-01-26T01:04:37;96506.22;;;-1.59;100.00
13604;BME280;24578;48.264;11.436;2023-01-26T01:07:37;96502.19;;;-1.69;100.00
13604;BME280;24578;48.264;11.436;2023-01-26T01:10:38;96497.69;;;-1.55;100.00
13604;BME280;24578;48.264;11.436;2023-01-26T01:13:39;96503.78;;;-1.63;100.00
13604;BME280;24578;48.264;11.436;2023-01-26T01:16:40;96500.47;;;-1.69;100.00
13604;BME280;24578;48.264;11.436;2023-01-26T01:19:40;96498.66;;;-1.62;100.00
13604;BME280;24578;48.264;11.436;2023-01-26T01:22:41;96505.19;;;-1.50;100.00
13604;BME280;24578;48.264;11.436;2023-01-26T01:25:42;96492.47;;;-1.48;100.00
13604;BME280;24578;48.264;11.436;2023-01-26T01:28:43;96498.31;;;-1.45;100.00
13604;BME280;24578;48.264;11.436;2023-01-26T01:31:43;96498.31;;;-1.45;100.00
13604;BME280;24578;48.264;11.436;2023-01-26T01:34:48;96504.22;;;-1.44;100.00
13604;BME280;24578;48.264;11.436;2023-01-26T01:37:49;96507.56;;;-1.42;100.00
13604;BME280;24578;48.264;11.436;2023-01-26T01:40:49;96488.97;;;-1.43;100.00
13604;BME280;24578;48.264;11.436;2023-01-26T01:43:50;96490.72;;;-1.46;100.00
13604;BME280;24578;48.264;11.436;2023-01-26T01:47:02;96497.63;;;-1.51;100.00
13604;BME280;24578;48.264;11.436;2023-01-26T01:50:02;96483.91;;;-1.44;100.00
13604;BME280;24578;48.264;11.436;2023-01-26T01:53:07;96491.63;;;-1.49;100.00
13604;BME280;24578;48.264;11.436;2023-01-26T01:56:16;96495.75;;;-1.43;100.00
13604;BME280;24578;48.264;11.436;2023-01-26T01:59:21;96488.84;;;-1.36;100.00
13604;BME280;24578;48.264;11.436;2023-01-26T02:02:21;96491.78;;;-1.57;100.00
13604;BME280;24578;48.264;11.436;2023-01-26T02:05:30;96491.78;;;-1.57;100.00
13604;BME280;24578;48.264;11.436;2023-01-26T02:11:43;96468.69;;;-1.44;100.00
13604;BME280;24578;48.264;11.436;2023-01-26T02:14:45;96475.06;;;-1.67;100.00
13604;BME280;24578;48.264;11.436;2023-01-26T02:17:45;96474.28;;;-1.71;100.00
13604;BME280;24578;48.264;11.436;2023-01-26T02:21:00;96458.13;;;-1.66;100.00
13604;BME280;24578;48.264;11.436;2023-01-26T02:24:10;96452.03;;;-1.58;100.00
13604;BME280;24578;48.264;11.436;2023-01-26T02:27:13;96452.78;;;-1.52;100.00
13604;BME280;24578;48.264;11.436;2023-01-26T02:30:15;96449.50;;;-1.58;100.00
13604;BME280;24578;48.264;11.436;2023-01-26T02:33:20;96450.91;;;-1.44;100.00
13604;BME280;24578;48.264;11.436;2023-01-26T02:36:28;96453.09;;;-1.70;100.00
13604;BME280;24578;48.264;11.436;2023-01-26T02:39:33;96436.41;;;-1.80;100.00
13604;BME280;24578;48.264;11.436;2023-01-26T02:42:37;96432.19;;;-1.79;100.00
13604;BME280;24578;48.264;11.436;2023-01-26T02:45:39;96434.72;;;-1.81;100.00
13604;BME280;24578;48.264;11.436;2023-01-26T02:48:40;96438.13;;;-1.80;100.00
13604;BME280;24578;48.264;11.436;2023-01-26T02:52:01;96430.59;;;-1.87;100.00
13604;BME280;24578;48.264;11.436;2023-01-26T02:55:04;96424.72;;;-1.89;100.00
13604;BME280;24578;48.264;11.436;2023-01-26T02:58:24;96425.53;;;-1.87;100.00
13604;BME280;24578;48.264;11.436;2023-01-26T03:01:25;96409.41;;;-1.84;100.00
13604;BME280;24578;48.264;11.436;2023-01-26T03:04:25;96409.22;;;-1.75;100.00
13604;BME280;24578;48.264;11.436;2023-01-26T03:07:26;96404.84;;;-1.68;100.00
13604;BME280;24578;48.264;11.436;2023-01-26T03:10:27;96404.72;;;-1.62;100.00
13604;BME280;24578;48.264;11.436;2023-01-26T03:13:28;96406.31;;;-1.56;100.00
13604;BME280;24578;48.264;11.436;2023-01-26T03:16:28;96387.56;;;-1.50;100.00
13604;BME280;24578;48.264;11.436;2023-01-26T03:19:29;96395.84;;;-1.42;100.00
13604;BME280;24578;48.264;11.436;2023-01-26T03:22:48;96394.44;;;-1.56;100.00
13604;BME280;24578;48.264;11.436;2023-01-26T03:26:27;96395.50;;;-1.66;100.00
13604;BME280;24578;48.264;11.436;2023-01-26T03:29:46;96389.47;;;-1.62;100.00
13604;BME280;24578;48.264;11.436;2023-01-26T03:32:47;96393.78;;;-1.65;100.00
13604;BME280;24578;48.264;11.436;2023-01-26T03:35:48;96397.16;;;-1.63;100.00
13604;BME280;24578;48.264;11.436;2023-01-26T03:38:51;96401.47;;;-1.67;100.00
13604;BME280;24578;48.264;11.436;2023-01-26T03:41:52;96402.13;;;-1.59;100.00
13604;BME280;24578;48.264;11.436;2023-01-26T03:45:11;96400.16;;;-1.87;100.00
13604;BME280;24578;48.264;11.436;2023-01-26T03:48:30;96394.97;;;-1.80;100.00
13604;BME280;24578;48.264;11.436;2023-01-26T03:51:50;96390.50;;;-1.71;100.00
13604;BME280;24578;48.264;11.436;2023-01-26T03:55:09;96392.28;;;-1.74;100.00
13604;BME280;24578;48.264;11.436;2023-01-26T03:58:28;96399.84;;;-1.71;100.00
13604;BME280;24578;48.264;11.436;2023-01-26T04:01:29;96395.56;;;-1.69;100.00
13604;BME280;24578;48.264;11.436;2023-01-26T04:04:32;96378.88;;;-1.79;100.00
13604;BME280;24578;48.264;11.436;2023-01-26T04:07:51;96388.06;;;-1.74;100.00
13604;BME280;24578;48.264;11.436;2023-01-26T04:11:10;96390.66;;;-1.78;100.00
13604;BME280;24578;48.264;11.436;2023-01-26T04:14:12;96384.81;;;-1.80;100.00
13604;BME280;24578;48.264;11.436;2023-01-26T04:17:32;96385.03;;;-1.93;100.00
13604;BME280;24578;48.264;11.436;2023-01-26T04:20:51;96379.34;;;-2.03;100.00
13604;BME280;24578;48.264;11.436;2023-01-26T04:24:10;96378.25;;;-1.91;100.00
13604;BME280;24578;48.264;11.436;2023-01-26T04:27:13;96371.31;;;-1.82;100.00
13604;BME280;24578;48.264;11.436;2023-01-26T04:30:16;96377.22;;;-1.82;100.00
13604;BME280;24578;48.264;11.436;2023-01-26T04:33:16;96387.16;;;-1.71;100.00
13604;BME280;24578;48.264;11.436;2023-01-26T04:36:17;96375.38;;;-1.75;100.00
13604;BME280;24578;48.264;11.436;2023-01-26T04:39:17;96374.72;;;-1.84;100.00
13604;BME280;24578;48.264;11.436;2023-01-26T04:42:18;96368.91;;;-1.89;100.00
13604;BME280;24578;48.264;11.436;2023-01-26T04:45:19;96371.16;;;-1.76;100.00
13604;BME280;24578;48.264;11.436;2023-01-26T04:48:19;96372.91;;;-1.78;100.00
13604;BME280;24578;48.264;11.436;2023-01-26T04:51:21;96379.03;;;-1.87;100.00
13604;BME280;24578;48.264;11.436;2023-01-26T04:54:21;96374.72;;;-1.84;100.00
13604;BME280;24578;48.264;11.436;2023-01-26T04:57:22;96375.69;;;-1.89;100.00
13604;BME280;24578;48.264;11.436;2023-01-26T05:00:23;96376.66;;;-1.96;100.00
13604;BME280;24578;48.264;11.436;2023-01-26T05:03:25;96380.72;;;-1.88;100.00
13604;BME280;24578;48.264;11.436;2023-01-26T05:06:25;96375.53;;;-1.81;100.00
13604;BME280;24578;48.264;11.436;2023-01-26T05:09:26;96377.00;;;-1.71;100.00
13604;BME280;24578;48.264;11.436;2023-01-26T05:12:27;96377.91;;;-1.75;100.00
13604;BME280;24578;48.264;11.436;2023-01-26T05:15:34;96376.06;;;-1.67;100.00
13604;BME280;24578;48.264;11.436;2023-01-26T05:18:34;96374.50;;;-1.74;100.00
13604;BME280;24578;48.264;11.436;2023-01-26T05:21:35;96375.38;;;-1.75;100.00
13604;BME280;24578;48.264;11.436;2023-01-26T05:24:36;96365.91;;;-1.67;100.00
13604;BME280;24578;48.264;11.436;2023-01-26T05:27:36;96383.63;;;-1.65;100.00
13604;BME280;24578;48.264;11.436;2023-01-26T05:30:37;96377.59;;;-1.60;100.00
13604;BME280;24578;48.264;11.436;2023-01-26T05:33:37;96386.06;;;-1.59;100.00
13604;BME280;24578;48.264;11.436;2023-01-26T05:36:38;96369.25;;;-1.65;100.00
13604;BME280;24578;48.264;11.436;2023-01-26T05:39:38;96375.91;;;-1.61;100.00
13604;BME280;24578;48.264;11.436;2023-01-26T05:42:41;96380.06;;;-1.57;100.00
13604;BME280;24578;48.264;11.436;2023-01-26T05:45:42;96375.81;;;-1.55;100.00
13604;BME280;24578;48.264;11.436;2023-01-26T05:48:43;96373.25;;;-1.55;100.00
13604;BME280;24578;48.264;11.436;2023-01-26T05:51:43;96379.94;;;-1.50;100.00
13604;BME280;24578;48.264;11.436;2023-01-26T05:54:46;96373.91;;;-1.46;100.00
13604;BME280;24578;48.264;11.436;2023-01-26T05:57:46;96364.59;;;-1.46;100.00
13604;BME280;24578;48.264;11.436;2023-01-26T06:00:47;96381.88;;;-1.62;100.00
13604;BME280;24578;48.264;11.436;2023-01-26T06:03:47;96372.34;;;-1.50;100.00
13604;BME280;24578;48.264;11.436;2023-01-26T06:06:50;96365.44;;;-1.45;100.00
13604;BME280;24578;48.264;11.436;2023-01-26T06:09:51;96372.16;;;-1.43;100.00
13604;BME280;24578;48.264;11.436;2023-01-26T06:12:52;96372.97;;;-1.42;100.00
13604;BME280;24578;48.264;11.436;2023-01-26T06:15:52;96386.69;;;-1.49;100.00
13604;BME280;24578;48.264;11.436;2023-01-26T06:18:53;96381.53;;;-1.46;100.00
13604;BME280;24578;48.264;11.436;2023-01-26T06:21:54;96378.09;;;-1.44;100.00
13604;BME280;24578;48.264;11.436;2023-01-26T06:24:54;96378.13;;;-1.45;100.00
13604;BME280;24578;48.264;11.436;2023-01-26T06:27:58;96380.53;;;-1.39;100.00
13604;BME280;24578;48.264;11.436;2023-01-26T06:30:59;96372.84;;;-1.36;100.00
13604;BME280;24578;48.264;11.436;2023-01-26T06:34:00;96373.72;;;-1.37;100.00
13604;BME280;24578;48.264;11.436;2023-01-26T06:37:00;96373.66;;;-1.34;100.00
13604;BME280;24578;48.264;11.436;2023-01-26T06:40:01;96374.41;;;-1.30;100.00
13604;BME280;24578;48.264;11.436;2023-01-26T06:43:02;96373.56;;;-1.29;100.00
13604;BME280;24578;48.264;11.436;2023-01-26T06:46:04;96376.09;;;-1.29;100.00
13604;BME280;24578;48.264;11.436;2023-01-26T06:49:05;96376.09;;;-1.29;100.00
13604;BME280;24578;48.264;11.436;2023-01-26T06:52:20;96382.00;;;-1.29;100.00
13604;BME280;24578;48.264;11.436;2023-01-26T06:55:29;96376.81;;;-1.24;100.00
13604;BME280;24578;48.264;11.436;2023-01-26T06:58:31;96381.00;;;-1.23;100.00
13604;BME280;24578;48.264;11.436;2023-01-26T07:01:36;96381.06;;;-1.25;100.00
13604;BME280;24578;48.264;11.436;2023-01-26T07:04:37;96369.28;;;-1.27;100.00
13604;BME280;24578;48.264;11.436;2023-01-26T07:07:37;96373.56;;;-1.29;100.00
13604;BME280;24578;48.264;11.436;2023-01-26T07:10:38;96367.91;;;-1.42;100.00
13604;BME280;24578;48.264;11.436;2023-01-26T07:13:39;96370.50;;;-1.45;100.00
13604;BME280;24578;48.264;11.436;2023-01-26T07:16:40;96361.16;;;-1.43;100.00
13604;BME280;24578;48.264;11.436;2023-01-26T07:19:40;96365.59;;;-1.51;100.00
13604;BME280;24578;48.264;11.436;2023-01-26T07:22:41;96358.69;;;-1.46;100.00
13604;BME280;24578;48.264;11.436;2023-01-26T07:25:42;96367.88;;;-1.41;100.00
13604;BME280;24578;48.264;11.436;2023-01-26T07:28:43;96348.34;;;-1.39;100.00
13604;BME280;24578;48.264;11.436;2023-01-26T07:31:44;96354.97;;;-1.31;100.00
13604;BME280;24578;48.264;11.436;2023-01-26T07:34:45;96366.69;;;-1.26;100.00
13604;BME280;24578;48.264;11.436;2023-01-26T07:37:45;96364.03;;;-1.21;100.00
13604;BME280;24578;48.264;11.436;2023-01-26T07:40:46;96359.69;;;-1.16;100.00
13604;BME280;24578;48.264;11.436;2023-01-26T07:43:46;96363.03;;;-1.14;100.00
13604;BME280;24578;48.264;11.436;2023-01-26T07:46:47;96358.59;;;-1.05;100.00
13604;BME280;24578;48.264;11.436;2023-01-26T07:49:47;96368.69;;;-1.02;100.00
13604;BME280;24578;48.264;11.436;2023-01-26T07:52:48;96354.25;;;-1.00;100.00
13604;BME280;24578;48.264;11.436;2023-01-26T07:55:48;96357.59;;;-1.00;100.00
13604;BME280;24578;48.264;11.436;2023-01-26T07:58:53;96346.50;;;-0.96;100.00
13604;BME280;24578;48.264;11.436;2023-01-26T08:01:53;96354.91;;;-0.94;100.00
13604;BME280;24578;48.264;11.436;2023-01-26T08:04:54;96349.09;;;-0.99;100.00
13604;BME280;24578;48.264;11.436;2023-01-26T08:07:58;96346.50;;;-0.96;100.00
13604;BME280;24578;48.264;11.436;2023-01-26T08:11:01;96339.53;;;-0.87;100.00
13604;BME280;24578;48.264;11.436;2023-01-26T08:14:02;96336.81;;;-0.81;100.00
13604;BME280;24578;48.264;11.436;2023-01-26T08:17:02;96332.59;;;-0.81;100.00
13604;BME280;24578;48.264;11.436;2023-01-26T08:20:03;96340.28;;;-0.84;100.00
13604;BME280;24578;48.264;11.436;2023-01-26T08:23:04;96345.16;;;-0.76;100.00
13604;BME280;24578;48.264;11.436;2023-01-26T08:26:10;96328.19;;;-0.75;100.00
13604;BME280;24578;48.264;11.436;2023-01-26T08:29:11;96327.41;;;-0.78;100.00
13604;BME280;24578;48.264;11.436;2023-01-26T08:32:12;96335.75;;;-0.72;100.00
13604;BME280;24578;48.264;11.436;2023-01-26T08:35:12;96335.75;;;-0.72;100.00
13604;BME280;24578;48.264;11.436;2023-01-26T08:38:13;96335.00;;;-0.76;100.00
13604;BME280;24578;48.264;11.436;2023-01-26T08:41:13;96335.81;;;-0.74;100.00
13604;BME280;24578;48.264;11.436;2023-01-26T08:44:14;96336.59;;;-0.72;100.00
13604;BME280;24578;48.264;11.436;2023-01-26T08:47:14;96334.06;;;-0.73;100.00
13604;BME280;24578;48.264;11.436;2023-01-26T08:50:15;96339.97;;;-0.71;100.00
13604;BME280;24578;48.264;11.436;2023-01-26T08:53:16;96338.28;;;-0.71;100.00
13604;BME280;24578;48.264;11.436;2023-01-26T08:56:16;96344.06;;;-0.66;100.00
13604;BME280;24578;48.264;11.436;2023-01-26T08:59:17;96329.53;;;-0.62;100.00
13604;BME280;24578;48.264;11.436;2023-01-26T09:02:17;96328.09;;;-0.71;100.00
13604;BME280;24578;48.264;11.436;2023-01-26T09:05:18;96342.34;;;-0.65;100.00
13604;BME280;24578;48.264;11.436;2023-01-26T09:08:18;96337.16;;;-0.62;100.00
13604;BME280;24578;48.264;11.436;2023-01-26T09:11:19;96326.84;;;-0.56;100.00
13604;BME280;24578;48.264;11.436;2023-01-26T09:14:19;96331.19;;;-0.59;100.00
13604;BME280;24578;48.264;11.436;2023-01-26T09:17:20;96332.47;;;-0.78;100.00
13604;BME280;24578;48.264;11.436;2023-01-26T09:20:21;96338.16;;;-0.68;100.00
13604;BME280;24578;48.264;11.436;2023-01-26T09:23:22;96345.59;;;-0.60;100.00
13604;BME280;24578;48.264;11.436;2023-01-26T09:26:23;96337.81;;;-0.54;100.00
13604;BME280;24578;48.264;11.436;2023-01-26T09:29:24;96337.69;;;-0.49;100.00
13604;BME280;24578;48.264;11.436;2023-01-26T09:32:24;96345.53;;;-0.57;100.00
13604;BME280;24578;48.264;11.436;2023-01-26T09:35:29;96343.78;;;-0.55;100.00
13604;BME280;24578;48.264;11.436;2023-01-26T09:38:30;96345.44;;;-0.54;100.00
13604;BME280;24578;48.264;11.436;2023-01-26T09:45:12;96340.22;;;-0.49;100.00
13604;BME280;24578;48.264;11.436;2023-01-26T09:48:23;96346.94;;;-0.47;100.00
13604;BME280;24578;48.264;11.436;2023-01-26T09:51:36;96341.75;;;-0.42;100.00
13604;BME280;24578;48.264;11.436;2023-01-26T09:54:46;96339.09;;;-0.39;100.00
13604;BME280;24578;48.264;11.436;2023-01-26T10:00:58;96331.47;;;-0.39;100.00
13604;BME280;24578;48.264;11.436;2023-01-26T10:04:13;96332.53;;;-0.46;100.00
13604;BME280;24578;48.264;11.436;2023-01-26T10:07:17;96332.59;;;-0.49;100.00
13604;BME280;24578;48.264;11.436;2023-01-26T10:10:27;96340.22;;;-0.48;100.00
13604;BME280;24578;48.264;11.436;2023-01-26T10:13:29;96330.13;;;-0.52;100.00
13604;BME280;24578;48.264;11.436;2023-01-26T10:16:33;96332.72;;;-0.54;100.00
13604;BME280;24578;48.264;11.436;2023-01-26T10:19:39;96329.25;;;-0.51;100.00
13604;BME280;24578;48.264;11.436;2023-01-26T10:25:45;96323.69;;;-0.33;100.00
13604;BME280;24578;48.264;11.436;2023-01-26T10:28:49;96325.09;;;-0.22;100.00
13604;BME280;24578;48.264;11.436;2023-01-26T10:31:50;96325.09;;;-0.22;100.00
13604;BME280;24578;48.264;11.436;2023-01-26T10:34:51;96322.44;;;-0.18;100.00
13604;BME280;24578;48.264;11.436;2023-01-26T10:37:52;96319.84;;;-0.16;100.00
13604;BME280;24578;48.264;11.436;2023-01-26T10:40:53;96307.81;;;-0.11;100.00
13604;BME280;24578;48.264;11.436;2023-01-26T10:47:20;96312.72;;;-0.05;100.00
13604;BME280;24578;48.264;11.436;2023-01-26T10:50:24;96319.84;;;-0.16;100.00
13604;BME280;24578;48.264;11.436;2023-01-26T10:53:26;96314.59;;;-0.10;100.00
13604;BME280;24578;48.264;11.436;2023-01-26T10:56:29;96311.84;;;-0.04;100.00
13604;BME280;24578;48.264;11.436;2023-01-26T10:59:40;96302.81;;;-0.14;100.00
13604;BME280;24578;48.264;11.436;2023-01-26T11:02:55;96298.00;;;-0.55;100.00
13604;BME280;24578;48.264;11.436;2023-01-26T11:06:10;96309.91;;;-0.55;100.00
13604;BME280;24578;48.264;11.436;2023-01-26T11:12:17;96301.88;;;-0.41;100.00
13604;BME280;24578;48.264;11.436;2023-01-26T11:15:21;96298.28;;;-0.34;100.00
13604;BME280;24578;48.264;11.436;2023-01-26T11:18:41;96310.59;;;-0.19;100.00
13604;BME280;24578;48.264;11.436;2023-01-26T11:22:18;96297.66;;;-0.11;100.00
13604;BME280;24578;48.264;11.436;2023-01-26T11:25:32;96301.31;;;-0.21;100.00
13604;BME280;24578;48.264;11.436;2023-01-26T11:32:28;96305.84;;;-0.01;100.00
13604;BME280;24578;48.264;11.436;2023-01-26T11:35:49;96299.91;;;-0.02;100.00
13604;BME280;24578;48.264;11.436;2023-01-26T11:45:24;96295.13;;;-0.12;100.00
13604;BME280;24578;48.264;11.436;2023-01-26T11:48:43;96295.53;;;-0.26;100.00
13604;BME280;24578;48.264;11.436;2023-01-26T11:55:02;96296.59;;;-0.98;100.00
13604;BME280;24578;48.264;11.436;2023-01-26T11:58:22;96293.41;;;-0.73;100.00
13604;BME280;24578;48.264;11.436;2023-01-26T12:01:44;96283.56;;;-0.54;100.00
13604;BME280;24578;48.264;11.436;2023-01-26T12:04:48;96287.41;;;-0.39;100.00
13604;BME280;24578;48.264;11.436;2023-01-26T12:07:58;96277.09;;;-0.35;100.00
13604;BME280;24578;48.264;11.436;2023-01-26T12:11:34;96271.22;;;-0.37;100.00
13604;BME280;24578;48.264;11.436;2023-01-26T12:18:33;96274.75;;;-0.41;100.00
13604;BME280;24578;48.264;11.436;2023-01-26T12:21:29;96264.38;;;-0.35;100.00
13604;BME280;24578;48.264;11.436;2023-01-26T12:24:39;96254.94;;;-0.31;100.00
13604;BME280;24578;48.264;11.436;2023-01-26T12:27:52;96259.81;;;-0.23;100.00
13604;BME280;24578;48.264;11.436;2023-01-26T12:34:32;96252.53;;;-0.36;100.00
13604;BME280;24578;48.264;11.436;2023-01-26T12:47:37;96250.50;;;-0.54;100.00
13604;BME280;24578;48.264;11.436;2023-01-26T12:50:46;96257.91;;;-0.45;100.00
13604;BME280;24578;48.264;11.436;2023-01-26T12:53:59;96250.03;;;-0.37;100.00
13604;BME280;24578;48.264;11.436;2023-01-26T12:57:08;96246.66;;;-0.38;100.00
13604;BME280;24578;48.264;11.436;2023-01-26T13:00:20;96251.53;;;-0.30;100.00
13604;BME280;24578;48.264;11.436;2023-01-26T13:03:30;96253.53;;;-0.40;100.00
13604;BME280;24578;48.264;11.436;2023-01-26T13:06:31;96239.13;;;-0.41;100.00
13604;BME280;24578;48.264;11.436;2023-01-26T13:09:32;96225.66;;;-0.44;100.00
13604;BME280;24578;48.264;11.436;2023-01-26T13:12:45;96244.31;;;-0.44;100.00
13604;BME280;24578;48.264;11.436;2023-01-26T13:22:42;96235.41;;;-0.92;100.00
13604;BME280;24578;48.264;11.436;2023-01-26T13:25:48;96234.69;;;-0.96;100.00
13604;BME280;24578;48.264;11.436;2023-01-26T13:35:25;96242.06;;;-0.55;100.00
13604;BME280;24578;48.264;11.436;2023-01-26T13:38:36;96244.44;;;-0.49;100.00
13604;BME280;24578;48.264;11.436;2023-01-26T13:41:46;96235.81;;;-0.43;100.00
13604;BME280;24578;48.264;11.436;2023-01-26T13:44:54;96240.81;;;-0.40;100.00
13604;BME280;24578;48.264;11.436;2023-01-26T13:47:57;96244.38;;;-0.47;100.00
13604;BME280;24578;48.264;11.436;2023-01-26T13:51:02;96236.16;;;-0.55;100.00
13604;BME280;24578;48.264;11.436;2023-01-26T13:54:11;96241.56;;;-0.68;100.00
13604;BME280;24578;48.264;11.436;2023-01-26T13:57:24;96238.69;;;-0.55;100.00
13604;BME280;24578;48.264;11.436;2023-01-26T14:00:25;96238.69;;;-0.55;100.00
13604;BME280;24578;48.264;11.436;2023-01-26T14:03:26;96232.88;;;-0.60;100.00
13604;BME280;24578;48.264;11.436;2023-01-26T14:06:27;96242.97;;;-0.57;100.00
13604;BME280;24578;48.264;11.436;2023-01-26T14:09:32;96241.25;;;-0.57;100.00
13604;BME280;24578;48.264;11.436;2023-01-26T14:12:46;96233.59;;;-0.55;100.00
13604;BME280;24578;48.264;11.436;2023-01-26T14:15:55;96236.16;;;-0.55;100.00
13604;BME280;24578;48.264;11.436;2023-01-26T14:19:16;96234.47;;;-0.56;100.00
13604;BME280;24578;48.264;11.436;2023-01-26T14:22:16;96241.25;;;-0.55;100.00
13604;BME280;24578;48.264;11.436;2023-01-26T14:25:18;96243.78;;;-0.55;100.00
13604;BME280;24578;48.264;11.436;2023-01-26T14:28:21;96239.81;;;-0.66;100.00
13604;BME280;24578;48.264;11.436;2023-01-26T14:31:27;96242.53;;;-0.72;100.00
13604;BME280;24578;48.264;11.436;2023-01-26T14:34:29;96235.66;;;-0.68;100.00
13604;BME280;24578;48.264;11.436;2023-01-26T14:37:30;96243.22;;;-0.67;100.00
13604;BME280;24578;48.264;11.436;2023-01-26T14:40:31;96242.47;;;-0.70;100.00
13604;BME280;24578;48.264;11.436;2023-01-26T14:43:31;96243.47;;;-0.76;100.00
13604;BME280;24578;48.264;11.436;2023-01-26T14:53:00;96232.59;;;-0.81;100.00
13604;BME280;24578;48.264;11.436;2023-01-26T14:56:03;96233.69;;;-0.90;100.00
13604;BME280;24578;48.264;11.436;2023-01-26T14:59:07;96237.19;;;-0.94;100.00
13604;BME280;24578;48.264;11.436;2023-01-26T15:02:41;96241.75;;;-1.07;100.00
13604;BME280;24578;48.264;11.436;2023-01-26T15:05:42;96239.03;;;-1.01;100.00
13604;BME280;24578;48.264;11.436;2023-01-26T15:11:56;96234.66;;;-0.94;100.00
13604;BME280;24578;48.264;11.436;2023-01-26T15:15:16;96234.59;;;-0.93;100.00
13604;BME280;24578;48.264;11.436;2023-01-26T15:18:19;96234.72;;;-0.97;100.00
13604;BME280;24578;48.264;11.436;2023-01-26T15:21:30;96230.03;;;-1.13;100.00
13604;BME280;24578;48.264;11.436;2023-01-26T15:24:32;96237.09;;;-1.24;100.00
13604;BME280;24578;48.264;11.436;2023-01-26T15:27:34;96232.19;;;-1.32;100.00
13604;BME280;24578;48.264;11.436;2023-01-26T15:30:35;96236.41;;;-1.31;100.00
13604;BME280;24578;48.264;11.436;2023-01-26T15:33:49;96249.59;;;-1.49;100.00
13604;BME280;24578;48.264;11.436;2023-01-26T15:36:50;96253.94;;;-1.55;100.00
13604;BME280;24578;48.264;11.436;2023-01-26T15:39:51;96256.22;;;-1.44;100.00
13604;BME280;24578;48.264;11.436;2023-01-26T15:43:04;96262.97;;;-1.44;100.00
13604;BME280;24578;48.264;11.436;2023-01-26T15:46:05;96260.50;;;-1.47;100.00
13604;BME280;24578;48.264;11.436;2023-01-26T15:49:07;96260.25;;;-1.35;100.00
13604;BME280;24578;48.264;11.436;2023-01-26T15:52:12;96267.75;;;-1.32;100.00
13604;BME280;24578;48.264;11.436;2023-01-26T15:55:20;96259.06;;;-1.21;100.00
13604;BME280;24578;48.264;11.436;2023-01-26T15:58:24;96256.28;;;-1.12;100.00
13604;BME280;24578;48.264;11.436;2023-01-26T16:01:25;96267.19;;;-1.09;100.00
13604;BME280;24578;48.264;11.436;2023-01-26T16:04:26;96261.22;;;-1.06;100.00
13604;BME280;24578;48.264;11.436;2023-01-26T16:07:27;96273.00;;;-1.03;100.00
13604;BME280;24578;48.264;11.436;2023-01-26T16:10:28;96268.78;;;-1.04;100.00
13604;BME280;24578;48.264;11.436;2023-01-26T16:13:29;96261.91;;;-1.01;100.00
13604;BME280;24578;48.264;11.436;2023-01-26T16:16:31;96263.16;;;-1.16;100.00
13604;BME280;24578;48.264;11.436;2023-01-26T16:19:31;96255.47;;;-1.14;100.00
13604;BME280;24578;48.264;11.436;2023-01-26T16:22:32;96249.16;;;-1.32;100.00
13604;BME280;24578;48.264;11.436;2023-01-26T16:25:33;96267.19;;;-1.43;100.00
13604;BME280;24578;48.264;11.436;2023-01-26T16:28:33;96267.19;;;-1.43;100.00
13604;BME280;24578;48.264;11.436;2023-01-26T16:31:34;96261.00;;;-1.31;100.00
13604;BME280;24578;48.264;11.436;2023-01-26T16:34:37;96261.84;;;-1.32;100.00
13604;BME280;24578;48.264;11.436;2023-01-26T16:37:38;96262.03;;;-1.40;100.00
13604;BME280;24578;48.264;11.436;2023-01-26T16:40:41;96262.81;;;-1.36;100.00
13604;BME280;24578;48.264;11.436;2023-01-26T16:43:43;96257.91;;;-1.44;100.00
13604;BME280;24578;48.264;11.436;2023-01-26T16:46:43;96257.03;;;-1.42;100.00
13604;BME280;24578;48.264;11.436;2023-01-26T16:49:44;96263.06;;;-1.47;100.00
13604;BME280;24578;48.264;11.436;2023-01-26T16:52:45;96267.34;;;-1.49;100.00
13604;BME280;24578;48.264;11.436;2023-01-26T16:55:46;96257.19;;;-1.49;100.00
13604;BME280;24578;48.264;11.436;2023-01-26T16:58:46;96248.63;;;-1.45;100.00
13604;BME280;24578;48.264;11.436;2023-01-26T17:01:47;96262.81;;;-1.36;100.00
13604;BME280;24578;48.264;11.436;2023-01-26T17:04:47;96254.00;;;-1.23;100.00